sensor_id;sensor_type;location;lat;lon;timestamp;P1;durP1;ratioP1;P2;durP2;ratioP2
739;SDS011;354;42.694;23.336;2023-01-16T00:01:59;70.13;;;45.60;;
739;SDS011;354;42.694;23.336;2023-01-16T00:04:25;69.30;;;44.57;;
739;SDS011;354;42.694;23.336;2023-01-16T00:06:51;71.27;;;43.23;;
739;SDS011;354;42.694;23.336;2023-01-16T00:09:17;71.27;;;43.80;;
739;SDS011;354;42.694;23.336;2023-01-16T00:11:43;69.23;;;44.13;;
739;SDS011;354;42.694;23.336;2023-01-16T00:14:08;64.37;;;42.10;;
739;SDS011;354;42.694;23.336;2023-01-16T00:16:34;66.50;;;43.73;;
739;SDS011;354;42.694;23.336;2023-01-16T00:18:59;64.30;;;40.47;;
739;SDS011;354;42.694;23.336;2023-01-16T00:21:24;65.23;;;42.23;;
739;SDS011;354;42.694;23.336;2023-01-16T00:23:56;66.00;;;42.30;;
739;SDS011;354;42.694;23.336;2023-01-16T00:26:23;64.17;;;41.30;;
739;SDS011;354;42.694;23.336;2023-01-16T00:28:50;59.97;;;38.80;;
739;SDS011;354;42.694;23.336;2023-01-16T00:31:15;63.53;;;40.53;;
739;SDS011;354;42.694;23.336;2023-01-16T00:33:41;62.37;;;40.60;;
739;SDS011;354;42.694;23.336;2023-01-16T00:36:08;62.53;;;39.83;;
739;SDS011;354;42.694;23.336;2023-01-16T00:38:34;60.87;;;39.43;;
739;SDS011;354;42.694;23.336;2023-01-16T00:40:59;63.13;;;40.73;;
739;SDS011;354;42.694;23.336;2023-01-16T00:43:25;60.50;;;39.80;;
739;SDS011;354;42.694;23.336;2023-01-16T00:45:50;56.83;;;38.30;;
739;SDS011;354;42.694;23.336;2023-01-16T00:48:16;58.10;;;38.93;;
739;SDS011;354;42.694;23.336;2023-01-16T00:50:41;57.57;;;38.40;;
739;SDS011;354;42.694;23.336;2023-01-16T00:53:07;59.83;;;39.70;;
739;SDS011;354;42.694;23.336;2023-01-16T00:55:33;63.17;;;40.10;;
739;SDS011;354;42.694;23.336;2023-01-16T00:58:00;60.00;;;38.23;;
739;SDS011;354;42.694;23.336;2023-01-16T01:00:25;63.13;;;37.37;;
739;SDS011;354;42.694;23.336;2023-01-16T01:02:51;65.37;;;38.87;;
739;SDS011;354;42.694;23.336;2023-01-16T01:05:16;59.47;;;38.23;;
739;SDS011;354;42.694;23.336;2023-01-16T01:07:42;61.07;;;37.70;;
739;SDS011;354;42.694;23.336;2023-01-16T01:10:08;61.97;;;36.50;;
739;SDS011;354;42.694;23.336;2023-01-16T01:12:34;56.70;;;35.87;;
739;SDS011;354;42.694;23.336;2023-01-16T01:14:59;56.87;;;37.17;;
739;SDS011;354;42.694;23.336;2023-01-16T01:17:25;58.07;;;35.23;;
739;SDS011;354;42.694;23.336;2023-01-16T01:19:50;52.67;;;35.73;;
739;SDS011;354;42.694;23.336;2023-01-16T01:22:15;52.40;;;34.73;;
739;SDS011;354;42.694;23.336;2023-01-16T01:24:41;59.17;;;37.13;;
739;SDS011;354;42.694;23.336;2023-01-16T01:27:07;59.33;;;36.57;;
739;SDS011;354;42.694;23.336;2023-01-16T01:29:33;60.23;;;37.13;;
739;SDS011;354;42.694;23.336;2023-01-16T01:31:58;55.83;;;36.83;;
739;SDS011;354;42.694;23.336;2023-01-16T01:34:24;56.87;;;35.67;;
739;SDS011;354;42.694;23.336;2023-01-16T01:36:49;54.93;;;35.70;;
739;SDS011;354;42.694;23.336;2023-01-16T01:39:15;56.83;;;37.50;;
739;SDS011;354;42.694;23.336;2023-01-16T01:41:40;55.73;;;35.13;;
739;SDS011;354;42.694;23.336;2023-01-16T01:47:08;52.17;;;33.30;;
739;SDS011;354;42.694;23.336;2023-01-16T01:49:34;55.70;;;34.67;;
739;SDS011;354;42.694;23.336;2023-01-16T01:52:01;53.67;;;32.30;;
739;SDS011;354;42.694;23.336;2023-01-16T01:54:30;54.37;;;33.73;;
739;SDS011;354;42.694;23.336;2023-01-16T01:57:02;54.17;;;34.40;;
739;SDS011;354;42.694;23.336;2023-01-16T01:59:33;54.13;;;33.90;;
739;SDS011;354;42.694;23.336;2023-01-16T02:02:02;53.90;;;32.73;;
739;SDS011;354;42.694;23.336;2023-01-16T02:04:32;59.13;;;33.67;;
739;SDS011;354;42.694;23.336;2023-01-16T02:07:05;51.63;;;33.87;;
739;SDS011;354;42.694;23.336;2023-01-16T02:09:33;52.20;;;34.80;;
739;SDS011;354;42.694;23.336;2023-01-16T02:12:03;53.07;;;34.30;;
739;SDS011;354;42.694;23.336;2023-01-16T02:14:33;53.30;;;32.53;;
739;SDS011;354;42.694;23.336;2023-01-16T02:17:13;51.17;;;33.73;;
739;SDS011;354;42.694;23.336;2023-01-16T02:49:34;49.93;;;30.97;;
739;SDS011;354;42.694;23.336;2023-01-16T02:57:10;51.93;;;31.53;;
739;SDS011;354;42.694;23.336;2023-01-16T02:59:40;49.53;;;30.37;;
739;SDS011;354;42.694;23.336;2023-01-16T03:02:06;51.87;;;31.13;;
739;SDS011;354;42.694;23.336;2023-01-16T03:12:29;56.60;;;33.73;;
739;SDS011;354;42.694;23.336;2023-01-16T03:15:04;55.47;;;35.53;;
739;SDS011;354;42.694;23.336;2023-01-16T03:26:07;53.13;;;32.00;;
739;SDS011;354;42.694;23.336;2023-01-16T03:37:19;56.07;;;35.30;;
739;SDS011;354;42.694;23.336;2023-01-16T03:39:55;58.20;;;35.70;;
739;SDS011;354;42.694;23.336;2023-01-16T03:50:44;58.60;;;37.30;;
739;SDS011;354;42.694;23.336;2023-01-16T03:53:15;57.63;;;36.23;;
739;SDS011;354;42.694;23.336;2023-01-16T03:58:36;63.30;;;37.30;;
739;SDS011;354;42.694;23.336;2023-01-16T04:01:24;58.83;;;38.03;;
739;SDS011;354;42.694;23.336;2023-01-16T04:04:18;54.87;;;32.70;;
739;SDS011;354;42.694;23.336;2023-01-16T04:07:01;56.73;;;31.67;;
739;SDS011;354;42.694;23.336;2023-01-16T04:12:13;51.97;;;29.37;;
739;SDS011;354;42.694;23.336;2023-01-16T04:14:45;53.27;;;30.03;;
739;SDS011;354;42.694;23.336;2023-01-16T04:17:13;57.37;;;31.77;;
739;SDS011;354;42.694;23.336;2023-01-16T04:19:39;57.13;;;33.50;;
739;SDS011;354;42.694;23.336;2023-01-16T04:22:05;54.30;;;31.37;;
739;SDS011;354;42.694;23.336;2023-01-16T04:24:33;54.40;;;34.63;;
739;SDS011;354;42.694;23.336;2023-01-16T04:27:00;55.93;;;31.07;;
739;SDS011;354;42.694;23.336;2023-01-16T04:29:26;56.93;;;33.20;;
739;SDS011;354;42.694;23.336;2023-01-16T04:31:52;59.97;;;34.13;;
739;SDS011;354;42.694;23.336;2023-01-16T04:34:17;57.83;;;35.17;;
739;SDS011;354;42.694;23.336;2023-01-16T04:36:42;62.87;;;33.97;;
739;SDS011;354;42.694;23.336;2023-01-16T04:39:08;68.10;;;34.80;;
739;SDS011;354;42.694;23.336;2023-01-16T04:41:33;62.60;;;35.17;;
739;SDS011;354;42.694;23.336;2023-01-16T04:44:02;61.80;;;32.03;;
739;SDS011;354;42.694;23.336;2023-01-16T04:46:28;62.97;;;34.50;;
739;SDS011;354;42.694;23.336;2023-01-16T04:48:54;60.27;;;35.70;;
739;SDS011;354;42.694;23.336;2023-01-16T04:51:19;62.67;;;35.20;;
739;SDS011;354;42.694;23.336;2023-01-16T04:53:45;60.97;;;34.77;;
739;SDS011;354;42.694;23.336;2023-01-16T04:56:10;60.43;;;34.03;;
739;SDS011;354;42.694;23.336;2023-01-16T04:58:35;64.77;;;34.27;;
739;SDS011;354;42.694;23.336;2023-01-16T05:01:01;65.93;;;35.53;;
739;SDS011;354;42.694;23.336;2023-01-16T05:03:26;70.20;;;38.90;;
739;SDS011;354;42.694;23.336;2023-01-16T05:05:51;65.90;;;34.23;;
739;SDS011;354;42.694;23.336;2023-01-16T05:08:17;69.03;;;36.30;;
739;SDS011;354;42.694;23.336;2023-01-16T05:10:42;67.33;;;35.90;;
739;SDS011;354;42.694;23.336;2023-01-16T05:13:07;77.07;;;37.97;;
739;SDS011;354;42.694;23.336;2023-01-16T05:15:33;71.57;;;37.53;;
739;SDS011;354;42.694;23.336;2023-01-16T05:17:58;78.57;;;38.27;;
739;SDS011;354;42.694;23.336;2023-01-16T05:20:24;78.63;;;36.70;;
739;SDS011;354;42.694;23.336;2023-01-16T05:22:49;78.43;;;37.50;;
739;SDS011;354;42.694;23.336;2023-01-16T05:25:15;74.93;;;37.27;;
739;SDS011;354;42.694;23.336;2023-01-16T05:27:40;74.70;;;36.13;;
739;SDS011;354;42.694;23.336;2023-01-16T05:30:06;74.30;;;39.67;;
739;SDS011;354;42.694;23.336;2023-01-16T05:32:32;72.87;;;37.40;;
739;SDS011;354;42.694;23.336;2023-01-16T05:34:57;71.20;;;34.63;;
739;SDS011;354;42.694;23.336;2023-01-16T05:37:26;76.93;;;37.47;;
739;SDS011;354;42.694;23.336;2023-01-16T05:39:53;78.03;;;40.07;;
739;SDS011;354;42.694;23.336;2023-01-16T05:42:22;78.60;;;41.33;;
739;SDS011;354;42.694;23.336;2023-01-16T05:44:49;82.73;;;40.03;;
739;SDS011;354;42.694;23.336;2023-01-16T05:47:16;90.93;;;42.57;;
739;SDS011;354;42.694;23.336;2023-01-16T05:49:42;82.60;;;40.90;;
739;SDS011;354;42.694;23.336;2023-01-16T05:52:08;88.17;;;42.47;;
739;SDS011;354;42.694;23.336;2023-01-16T05:54:33;107.37;;;43.20;;
739;SDS011;354;42.694;23.336;2023-01-16T05:56:58;100.43;;;44.17;;
739;SDS011;354;42.694;23.336;2023-01-16T05:59:24;93.70;;;40.00;;
739;SDS011;354;42.694;23.336;2023-01-16T06:01:49;82.17;;;42.53;;
739;SDS011;354;42.694;23.336;2023-01-16T06:04:15;93.57;;;44.27;;
739;SDS011;354;42.694;23.336;2023-01-16T06:06:42;93.40;;;41.10;;
739;SDS011;354;42.694;23.336;2023-01-16T06:09:08;83.47;;;42.60;;
739;SDS011;354;42.694;23.336;2023-01-16T06:11:33;88.40;;;41.23;;
739;SDS011;354;42.694;23.336;2023-01-16T06:13:59;90.83;;;45.47;;
739;SDS011;354;42.694;23.336;2023-01-16T06:16:28;91.07;;;45.73;;
739;SDS011;354;42.694;23.336;2023-01-16T06:18:54;103.07;;;45.23;;
739;SDS011;354;42.694;23.336;2023-01-16T06:21:19;93.83;;;45.57;;
739;SDS011;354;42.694;23.336;2023-01-16T06:23:44;97.20;;;44.83;;
739;SDS011;354;42.694;23.336;2023-01-16T06:26:10;85.40;;;41.60;;
739;SDS011;354;42.694;23.336;2023-01-16T06:28:36;103.23;;;51.77;;
739;SDS011;354;42.694;23.336;2023-01-16T06:31:02;90.23;;;52.30;;
739;SDS011;354;42.694;23.336;2023-01-16T06:33:28;80.97;;;39.47;;
739;SDS011;354;42.694;23.336;2023-01-16T06:35:53;90.73;;;44.20;;
739;SDS011;354;42.694;23.336;2023-01-16T06:38:19;84.07;;;45.90;;
739;SDS011;354;42.694;23.336;2023-01-16T06:40:45;92.50;;;50.77;;
739;SDS011;354;42.694;23.336;2023-01-16T06:43:10;89.40;;;46.07;;
739;SDS011;354;42.694;23.336;2023-01-16T06:45:36;84.70;;;45.70;;
739;SDS011;354;42.694;23.336;2023-01-16T06:48:02;88.80;;;45.10;;
739;SDS011;354;42.694;23.336;2023-01-16T06:50:28;73.60;;;40.07;;
739;SDS011;354;42.694;23.336;2023-01-16T06:52:53;73.63;;;41.27;;
739;SDS011;354;42.694;23.336;2023-01-16T06:55:19;76.03;;;41.30;;
739;SDS011;354;42.694;23.336;2023-01-16T06:57:44;73.07;;;39.27;;
739;SDS011;354;42.694;23.336;2023-01-16T07:00:10;71.07;;;38.20;;
739;SDS011;354;42.694;23.336;2023-01-16T07:02:37;74.50;;;40.87;;
739;SDS011;354;42.694;23.336;2023-01-16T07:05:05;61.27;;;36.80;;
739;SDS011;354;42.694;23.336;2023-01-16T07:07:34;64.53;;;35.63;;
739;SDS011;354;42.694;23.336;2023-01-16T07:10:00;67.33;;;40.23;;
739;SDS011;354;42.694;23.336;2023-01-16T07:12:25;76.43;;;46.47;;
739;SDS011;354;42.694;23.336;2023-01-16T07:14:51;55.97;;;33.80;;
739;SDS011;354;42.694;23.336;2023-01-16T07:17:35;52.03;;;33.03;;
739;SDS011;354;42.694;23.336;2023-01-16T07:20:19;55.50;;;34.43;;
739;SDS011;354;42.694;23.336;2023-01-16T07:23:11;50.73;;;33.73;;
739;SDS011;354;42.694;23.336;2023-01-16T07:25:43;58.63;;;35.50;;
739;SDS011;354;42.694;23.336;2023-01-16T07:28:09;54.50;;;35.10;;
739;SDS011;354;42.694;23.336;2023-01-16T07:30:35;55.90;;;34.80;;
739;SDS011;354;42.694;23.336;2023-01-16T07:33:00;61.87;;;39.83;;
739;SDS011;354;42.694;23.336;2023-01-16T07:35:26;81.43;;;46.80;;
739;SDS011;354;42.694;23.336;2023-01-16T07:37:51;59.83;;;39.73;;
739;SDS011;354;42.694;23.336;2023-01-16T07:40:21;61.60;;;35.30;;
739;SDS011;354;42.694;23.336;2023-01-16T07:42:48;61.97;;;37.87;;
739;SDS011;354;42.694;23.336;2023-01-16T07:45:15;56.47;;;34.77;;
739;SDS011;354;42.694;23.336;2023-01-16T07:47:40;65.00;;;36.33;;
739;SDS011;354;42.694;23.336;2023-01-16T07:50:05;65.33;;;36.60;;
739;SDS011;354;42.694;23.336;2023-01-16T07:52:31;59.40;;;36.33;;
739;SDS011;354;42.694;23.336;2023-01-16T07:54:57;56.47;;;34.63;;
739;SDS011;354;42.694;23.336;2023-01-16T07:57:22;57.17;;;34.17;;
739;SDS011;354;42.694;23.336;2023-01-16T07:59:49;57.40;;;34.93;;
739;SDS011;354;42.694;23.336;2023-01-16T08:02:15;58.03;;;33.07;;
739;SDS011;354;42.694;23.336;2023-01-16T08:04:40;51.53;;;33.97;;
739;SDS011;354;42.694;23.336;2023-01-16T08:07:05;69.20;;;38.70;;
739;SDS011;354;42.694;23.336;2023-01-16T08:09:31;79.67;;;40.13;;
739;SDS011;354;42.694;23.336;2023-01-16T08:11:56;78.23;;;41.53;;
739;SDS011;354;42.694;23.336;2023-01-16T08:14:22;89.17;;;50.27;;
739;SDS011;354;42.694;23.336;2023-01-16T08:16:47;83.87;;;43.97;;
739;SDS011;354;42.694;23.336;2023-01-16T08:19:12;84.13;;;45.63;;
739;SDS011;354;42.694;23.336;2023-01-16T08:21:38;109.27;;;52.47;;
739;SDS011;354;42.694;23.336;2023-01-16T08:24:03;104.00;;;51.17;;
739;SDS011;354;42.694;23.336;2023-01-16T08:26:29;96.83;;;52.47;;
739;SDS011;354;42.694;23.336;2023-01-16T08:28:55;88.33;;;47.00;;
739;SDS011;354;42.694;23.336;2023-01-16T08:31:20;86.67;;;47.07;;
739;SDS011;354;42.694;23.336;2023-01-16T08:33:45;84.90;;;48.10;;
739;SDS011;354;42.694;23.336;2023-01-16T08:36:13;103.60;;;48.90;;
739;SDS011;354;42.694;23.336;2023-01-16T08:38:41;91.10;;;50.07;;
739;SDS011;354;42.694;23.336;2023-01-16T08:41:08;97.90;;;51.50;;
739;SDS011;354;42.694;23.336;2023-01-16T08:43:53;89.30;;;47.20;;
739;SDS011;354;42.694;23.336;2023-01-16T08:46:37;105.93;;;50.87;;
739;SDS011;354;42.694;23.336;2023-01-16T08:49:23;94.10;;;49.03;;
739;SDS011;354;42.694;23.336;2023-01-16T08:52:07;92.10;;;50.03;;
739;SDS011;354;42.694;23.336;2023-01-16T08:54:33;90.17;;;51.87;;
739;SDS011;354;42.694;23.336;2023-01-16T08:56:59;82.80;;;52.10;;
739;SDS011;354;42.694;23.336;2023-01-16T08:59:24;71.40;;;41.83;;
739;SDS011;354;42.694;23.336;2023-01-16T09:01:49;74.67;;;41.50;;
739;SDS011;354;42.694;23.336;2023-01-16T09:04:15;76.83;;;44.60;;
739;SDS011;354;42.694;23.336;2023-01-16T09:06:40;74.27;;;42.50;;
739;SDS011;354;42.694;23.336;2023-01-16T09:09:06;77.47;;;42.80;;
739;SDS011;354;42.694;23.336;2023-01-16T09:11:33;74.87;;;42.43;;
739;SDS011;354;42.694;23.336;2023-01-16T09:14:17;64.83;;;39.17;;
739;SDS011;354;42.694;23.336;2023-01-16T09:16:42;57.10;;;34.03;;
739;SDS011;354;42.694;23.336;2023-01-16T09:19:08;50.83;;;31.37;;
739;SDS011;354;42.694;23.336;2023-01-16T09:21:33;53.47;;;31.87;;
739;SDS011;354;42.694;23.336;2023-01-16T09:23:59;51.00;;;31.00;;
739;SDS011;354;42.694;23.336;2023-01-16T09:26:24;48.30;;;31.60;;
739;SDS011;354;42.694;23.336;2023-01-16T09:28:49;51.20;;;31.67;;
739;SDS011;354;42.694;23.336;2023-01-16T09:31:15;43.47;;;28.07;;
739;SDS011;354;42.694;23.336;2023-01-16T09:33:41;50.27;;;29.67;;
739;SDS011;354;42.694;23.336;2023-01-16T09:36:06;48.63;;;29.67;;
739;SDS011;354;42.694;23.336;2023-01-16T09:38:32;54.23;;;34.43;;
739;SDS011;354;42.694;23.336;2023-01-16T09:40:58;55.33;;;33.93;;
739;SDS011;354;42.694;23.336;2023-01-16T09:43:31;52.90;;;32.07;;
739;SDS011;354;42.694;23.336;2023-01-16T09:48:50;53.70;;;34.40;;
739;SDS011;354;42.694;23.336;2023-01-16T09:51:45;48.43;;;31.97;;
739;SDS011;354;42.694;23.336;2023-01-16T09:54:38;50.20;;;30.53;;
739;SDS011;354;42.694;23.336;2023-01-16T09:57:26;48.27;;;30.60;;
739;SDS011;354;42.694;23.336;2023-01-16T10:00:13;44.20;;;28.87;;
739;SDS011;354;42.694;23.336;2023-01-16T10:02:40;48.83;;;28.57;;
739;SDS011;354;42.694;23.336;2023-01-16T10:05:06;52.87;;;32.20;;
739;SDS011;354;42.694;23.336;2023-01-16T10:12:42;51.67;;;32.60;;
739;SDS011;354;42.694;23.336;2023-01-16T10:15:28;50.57;;;34.80;;
739;SDS011;354;42.694;23.336;2023-01-16T10:23:21;29.40;;;20.80;;
739;SDS011;354;42.694;23.336;2023-01-16T10:26:12;34.27;;;24.33;;
739;SDS011;354;42.694;23.336;2023-01-16T10:32:05;37.73;;;26.47;;
739;SDS011;354;42.694;23.336;2023-01-16T10:34:40;38.73;;;25.77;;
739;SDS011;354;42.694;23.336;2023-01-16T10:37:16;35.03;;;24.93;;
739;SDS011;354;42.694;23.336;2023-01-16T10:39:43;36.63;;;28.27;;
739;SDS011;354;42.694;23.336;2023-01-16T10:42:12;34.80;;;24.07;;
739;SDS011;354;42.694;23.336;2023-01-16T10:47:48;33.40;;;23.80;;
739;SDS011;354;42.694;23.336;2023-01-16T10:50:34;43.70;;;28.10;;
739;SDS011;354;42.694;23.336;2023-01-16T10:53:01;43.10;;;28.67;;
739;SDS011;354;42.694;23.336;2023-01-16T10:55:27;41.63;;;29.20;;
739;SDS011;354;42.694;23.336;2023-01-16T10:57:55;39.73;;;27.47;;
739;SDS011;354;42.694;23.336;2023-01-16T11:00:23;34.70;;;20.67;;
739;SDS011;354;42.694;23.336;2023-01-16T11:03:02;36.30;;;22.50;;
739;SDS011;354;42.694;23.336;2023-01-16T11:05:36;34.03;;;23.97;;
739;SDS011;354;42.694;23.336;2023-01-16T11:08:20;34.47;;;24.60;;
739;SDS011;354;42.694;23.336;2023-01-16T11:10:48;38.70;;;27.00;;
739;SDS011;354;42.694;23.336;2023-01-16T11:13:22;32.70;;;23.63;;
739;SDS011;354;42.694;23.336;2023-01-16T11:18:55;33.03;;;22.20;;
739;SDS011;354;42.694;23.336;2023-01-16T11:23:52;32.00;;;23.87;;
739;SDS011;354;42.694;23.336;2023-01-16T11:26:25;34.23;;;24.57;;
739;SDS011;354;42.694;23.336;2023-01-16T11:28:52;40.70;;;27.30;;
739;SDS011;354;42.694;23.336;2023-01-16T11:31:22;32.50;;;24.83;;
739;SDS011;354;42.694;23.336;2023-01-16T11:33:56;32.53;;;22.77;;
739;SDS011;354;42.694;23.336;2023-01-16T11:36:26;32.00;;;23.43;;
739;SDS011;354;42.694;23.336;2023-01-16T11:38:55;33.87;;;24.47;;
739;SDS011;354;42.694;23.336;2023-01-16T11:41:26;31.40;;;22.50;;
739;SDS011;354;42.694;23.336;2023-01-16T11:47:14;40.03;;;24.90;;
739;SDS011;354;42.694;23.336;2023-01-16T11:49:45;32.37;;;23.03;;
739;SDS011;354;42.694;23.336;2023-01-16T11:52:15;34.27;;;24.53;;
739;SDS011;354;42.694;23.336;2023-01-16T11:54:55;30.83;;;22.43;;
739;SDS011;354;42.694;23.336;2023-01-16T12:09:15;34.13;;;24.07;;
739;SDS011;354;42.694;23.336;2023-01-16T12:14:48;33.00;;;22.50;;
739;SDS011;354;42.694;23.336;2023-01-16T12:17:28;32.00;;;23.03;;
739;SDS011;354;42.694;23.336;2023-01-16T12:20:15;29.23;;;20.97;;
739;SDS011;354;42.694;23.336;2023-01-16T12:28:19;32.30;;;20.10;;
739;SDS011;354;42.694;23.336;2023-01-16T12:42:40;23.73;;;16.70;;
739;SDS011;354;42.694;23.336;2023-01-16T12:45:50;19.97;;;15.93;;
739;SDS011;354;42.694;23.336;2023-01-16T12:48:30;20.57;;;16.03;;
739;SDS011;354;42.694;23.336;2023-01-16T12:58:51;21.40;;;15.77;;
739;SDS011;354;42.694;23.336;2023-01-16T13:06:44;20.10;;;15.53;;
739;SDS011;354;42.694;23.336;2023-01-16T13:09:21;24.17;;;17.90;;
739;SDS011;354;42.694;23.336;2023-01-16T13:12:03;23.13;;;16.97;;
739;SDS011;354;42.694;23.336;2023-01-16T13:14:56;26.87;;;18.77;;
739;SDS011;354;42.694;23.336;2023-01-16T13:17:27;23.13;;;17.87;;
739;SDS011;354;42.694;23.336;2023-01-16T13:20:04;24.00;;;18.50;;
739;SDS011;354;42.694;23.336;2023-01-16T13:22:34;18.97;;;16.17;;
739;SDS011;354;42.694;23.336;2023-01-16T13:28:02;21.93;;;17.53;;
739;SDS011;354;42.694;23.336;2023-01-16T13:30:35;23.67;;;17.47;;
739;SDS011;354;42.694;23.336;2023-01-16T13:33:03;22.80;;;16.20;;
739;SDS011;354;42.694;23.336;2023-01-16T13:35:34;17.00;;;13.03;;
739;SDS011;354;42.694;23.336;2023-01-16T13:47:43;20.33;;;15.83;;
739;SDS011;354;42.694;23.336;2023-01-16T13:49:54;12.23;;;10.87;;
739;SDS011;354;42.694;23.336;2023-01-16T13:52:32;20.40;;;18.10;;
739;SDS011;354;42.694;23.336;2023-01-16T13:55:00;21.93;;;17.53;;
739;SDS011;354;42.694;23.336;2023-01-16T13:57:28;21.10;;;16.90;;
739;SDS011;354;42.694;23.336;2023-01-16T13:59:57;22.77;;;18.43;;
739;SDS011;354;42.694;23.336;2023-01-16T14:13:31;26.30;;;19.57;;
739;SDS011;354;42.694;23.336;2023-01-16T14:15:58;22.27;;;16.70;;
739;SDS011;354;42.694;23.336;2023-01-16T14:21:26;9.97;;;8.77;;
739;SDS011;354;42.694;23.336;2023-01-16T14:23:54;17.37;;;13.90;;
739;SDS011;354;42.694;23.336;2023-01-16T14:31:42;21.87;;;16.37;;
739;SDS011;354;42.694;23.336;2023-01-16T14:34:17;22.03;;;15.57;;
739;SDS011;354;42.694;23.336;2023-01-16T14:36:50;31.60;;;20.83;;
739;SDS011;354;42.694;23.336;2023-01-16T14:42:17;22.33;;;15.30;;
739;SDS011;354;42.694;23.336;2023-01-16T14:53:58;21.33;;;15.47;;
739;SDS011;354;42.694;23.336;2023-01-16T14:57:12;25.73;;;20.17;;
739;SDS011;354;42.694;23.336;2023-01-16T14:59:41;20.40;;;16.00;;
739;SDS011;354;42.694;23.336;2023-01-16T15:02:18;28.13;;;21.10;;
739;SDS011;354;42.694;23.336;2023-01-16T15:07:37;17.90;;;11.73;;
739;SDS011;354;42.694;23.336;2023-01-16T15:10:16;26.00;;;18.93;;
739;SDS011;354;42.694;23.336;2023-01-16T15:12:45;22.40;;;16.80;;
739;SDS011;354;42.694;23.336;2023-01-16T15:17:52;30.83;;;20.90;;
739;SDS011;354;42.694;23.336;2023-01-16T15:20:38;31.23;;;23.13;;
739;SDS011;354;42.694;23.336;2023-01-16T15:28:43;22.20;;;16.40;;
739;SDS011;354;42.694;23.336;2023-01-16T15:31:24;27.33;;;21.90;;
739;SDS011;354;42.694;23.336;2023-01-16T15:36:38;24.93;;;17.23;;
739;SDS011;354;42.694;23.336;2023-01-16T15:39:22;28.67;;;21.03;;
739;SDS011;354;42.694;23.336;2023-01-16T15:41:56;26.33;;;21.47;;
739;SDS011;354;42.694;23.336;2023-01-16T15:44:48;33.03;;;26.07;;
739;SDS011;354;42.694;23.336;2023-01-16T15:53:05;30.67;;;21.40;;
739;SDS011;354;42.694;23.336;2023-01-16T15:55:35;34.10;;;23.57;;
739;SDS011;354;42.694;23.336;2023-01-16T15:58:04;24.87;;;18.60;;
739;SDS011;354;42.694;23.336;2023-01-16T16:00:36;28.97;;;22.53;;
739;SDS011;354;42.694;23.336;2023-01-16T16:05:46;29.00;;;19.63;;
739;SDS011;354;42.694;23.336;2023-01-16T16:08:16;28.93;;;19.37;;
739;SDS011;354;42.694;23.336;2023-01-16T16:10:44;32.07;;;24.50;;
739;SDS011;354;42.694;23.336;2023-01-16T16:13:29;31.67;;;23.43;;
739;SDS011;354;42.694;23.336;2023-01-16T16:15:59;23.23;;;19.23;;
739;SDS011;354;42.694;23.336;2023-01-16T16:21:18;29.00;;;21.10;;
739;SDS011;354;42.694;23.336;2023-01-16T16:23:45;33.13;;;24.37;;
739;SDS011;354;42.694;23.336;2023-01-16T16:26:11;32.60;;;24.27;;
739;SDS011;354;42.694;23.336;2023-01-16T16:28:44;28.20;;;21.80;;
739;SDS011;354;42.694;23.336;2023-01-16T16:31:29;33.30;;;25.00;;
739;SDS011;354;42.694;23.336;2023-01-16T16:34:05;31.23;;;23.80;;
739;SDS011;354;42.694;23.336;2023-01-16T16:36:39;29.47;;;21.83;;
739;SDS011;354;42.694;23.336;2023-01-16T16:41:50;32.73;;;25.53;;
739;SDS011;354;42.694;23.336;2023-01-16T16:44:39;22.60;;;16.13;;
739;SDS011;354;42.694;23.336;2023-01-16T16:47:19;30.80;;;22.67;;
739;SDS011;354;42.694;23.336;2023-01-16T16:49:47;31.90;;;20.60;;
739;SDS011;354;42.694;23.336;2023-01-16T16:55:05;29.77;;;21.27;;
739;SDS011;354;42.694;23.336;2023-01-16T16:57:52;30.23;;;22.17;;
739;SDS011;354;42.694;23.336;2023-01-16T17:00:18;29.80;;;22.57;;
739;SDS011;354;42.694;23.336;2023-01-16T17:02:47;33.80;;;24.13;;
739;SDS011;354;42.694;23.336;2023-01-16T17:05:15;27.83;;;21.80;;
739;SDS011;354;42.694;23.336;2023-01-16T17:07:46;30.43;;;22.07;;
739;SDS011;354;42.694;23.336;2023-01-16T17:10:16;29.80;;;21.20;;
739;SDS011;354;42.694;23.336;2023-01-16T17:12:42;27.33;;;18.90;;
739;SDS011;354;42.694;23.336;2023-01-16T17:15:08;28.60;;;21.57;;
739;SDS011;354;42.694;23.336;2023-01-16T17:17:37;27.33;;;20.57;;
739;SDS011;354;42.694;23.336;2023-01-16T17:20:11;24.47;;;18.93;;
739;SDS011;354;42.694;23.336;2023-01-16T17:22:41;28.60;;;20.60;;
739;SDS011;354;42.694;23.336;2023-01-16T17:25:11;34.00;;;23.30;;
739;SDS011;354;42.694;23.336;2023-01-16T17:27:47;28.20;;;20.67;;
739;SDS011;354;42.694;23.336;2023-01-16T17:30:13;30.73;;;23.27;;
739;SDS011;354;42.694;23.336;2023-01-16T17:32:40;35.87;;;24.47;;
739;SDS011;354;42.694;23.336;2023-01-16T17:35:16;31.87;;;23.87;;
739;SDS011;354;42.694;23.336;2023-01-16T17:37:42;38.50;;;25.50;;
739;SDS011;354;42.694;23.336;2023-01-16T17:40:08;31.30;;;22.10;;
739;SDS011;354;42.694;23.336;2023-01-16T17:42:34;33.73;;;24.40;;
739;SDS011;354;42.694;23.336;2023-01-16T17:45:26;33.27;;;23.23;;
739;SDS011;354;42.694;23.336;2023-01-16T17:48:14;32.93;;;24.10;;
739;SDS011;354;42.694;23.336;2023-01-16T17:50:40;33.73;;;24.50;;
739;SDS011;354;42.694;23.336;2023-01-16T17:53:07;35.17;;;25.17;;
739;SDS011;354;42.694;23.336;2023-01-16T17:55:35;33.50;;;23.20;;
739;SDS011;354;42.694;23.336;2023-01-16T17:58:37;38.43;;;25.23;;
739;SDS011;354;42.694;23.336;2023-01-16T18:01:12;28.13;;;19.47;;
739;SDS011;354;42.694;23.336;2023-01-16T18:03:39;28.80;;;23.13;;
739;SDS011;354;42.694;23.336;2023-01-16T18:06:11;31.67;;;22.90;;
739;SDS011;354;42.694;23.336;2023-01-16T18:08:36;32.60;;;22.60;;
739;SDS011;354;42.694;23.336;2023-01-16T18:11:02;30.17;;;23.03;;
739;SDS011;354;42.694;23.336;2023-01-16T18:13:47;33.43;;;23.33;;
739;SDS011;354;42.694;23.336;2023-01-16T18:16:32;35.17;;;25.13;;
739;SDS011;354;42.694;23.336;2023-01-16T18:19:16;35.63;;;25.43;;
739;SDS011;354;42.694;23.336;2023-01-16T18:21:41;33.30;;;23.70;;
739;SDS011;354;42.694;23.336;2023-01-16T18:24:25;28.43;;;21.93;;
739;SDS011;354;42.694;23.336;2023-01-16T18:26:51;32.43;;;24.20;;
739;SDS011;354;42.694;23.336;2023-01-16T18:29:17;30.93;;;23.53;;
739;SDS011;354;42.694;23.336;2023-01-16T18:31:42;30.17;;;22.03;;
739;SDS011;354;42.694;23.336;2023-01-16T18:34:27;40.53;;;24.03;;
739;SDS011;354;42.694;23.336;2023-01-16T18:36:53;30.07;;;23.47;;
739;SDS011;354;42.694;23.336;2023-01-16T18:39:18;35.90;;;25.70;;
739;SDS011;354;42.694;23.336;2023-01-16T18:42:02;33.20;;;23.17;;
739;SDS011;354;42.694;23.336;2023-01-16T18:44:46;29.13;;;22.97;;
739;SDS011;354;42.694;23.336;2023-01-16T18:47:30;32.47;;;23.90;;
739;SDS011;354;42.694;23.336;2023-01-16T18:50:14;26.57;;;21.50;;
739;SDS011;354;42.694;23.336;2023-01-16T18:52:58;28.63;;;21.40;;
739;SDS011;354;42.694;23.336;2023-01-16T18:55:42;30.80;;;22.93;;
739;SDS011;354;42.694;23.336;2023-01-16T18:58:26;30.30;;;21.80;;
739;SDS011;354;42.694;23.336;2023-01-16T19:01:13;28.23;;;19.70;;
739;SDS011;354;42.694;23.336;2023-01-16T19:03:57;24.50;;;18.73;;
739;SDS011;354;42.694;23.336;2023-01-16T19:06:23;29.23;;;21.73;;